createdAt,value
2018-02-09T00:00:24.171Z,31.54
2018-02-09T00:01:24.161Z,31.45
2018-02-09T00:02:24.165Z,31.54
2018-02-09T00:03:24.396Z,31.46
2018-02-09T00:04:24.140Z,31.54
2018-02-09T00:05:24.132Z,31.35
2018-02-09T00:06:24.125Z,31.45
2018-02-09T00:07:24.123Z,31.35
2018-02-09T00:08:24.213Z,31.35
2018-02-09T00:09:24.105Z,31.54
2018-02-09T00:10:24.246Z,31.45
2018-02-09T00:11:24.086Z,31.45
2018-02-09T00:12:24.130Z,31.45
2018-02-09T00:13:24.077Z,31.35
2018-02-09T00:14:24.070Z,31.45
2018-02-09T00:15:24.059Z,31.45
2018-02-09T00:16:24.049Z,31.45
2018-02-09T00:17:24.046Z,31.54
2018-02-09T00:18:24.288Z,31.45
2018-02-09T00:19:24.030Z,31.45
2018-02-09T00:20:24.021Z,31.25
2018-02-09T00:21:24.017Z,31.93
2018-02-09T00:22:24.005Z,31.35
2018-02-09T00:23:23.997Z,31.45
2018-02-09T00:24:23.989Z,31.35
2018-02-09T00:25:23.984Z,31.85
2018-02-09T00:26:23.982Z,32.03
2018-02-09T00:27:23.985Z,32.03
2018-02-09T00:28:23.959Z,31.73
2018-02-09T00:29:24.254Z,31.63
2018-02-09T00:30:23.951Z,31.93
2018-02-09T00:31:23.938Z,31.93
2018-02-09T00:32:23.935Z,31.93
2018-02-09T00:33:23.926Z,31.93
2018-02-09T00:34:23.917Z,32.03
2018-02-09T00:35:23.916Z,32.03
2018-02-09T00:36:23.905Z,32.03
2018-02-09T00:37:23.896Z,32.03
2018-02-09T00:38:23.887Z,31.73
2018-02-09T00:39:23.882Z,31.73
2018-02-09T00:40:23.872Z,32.12
2018-02-09T00:41:23.870Z,31.73
2018-02-09T00:42:23.855Z,31.83
2018-02-09T00:43:23.854Z,31.73
2018-02-09T00:44:23.844Z,31.83
2018-02-09T00:45:23.836Z,31.83
2018-02-09T00:46:23.826Z,31.73
2018-02-09T00:47:23.823Z,31.63
2018-02-09T00:48:23.812Z,31.63
2018-02-09T00:49:23.812Z,31.54
2018-02-09T00:50:23.800Z,31.73
2018-02-09T00:51:23.848Z,31.54
2018-02-09T00:52:23.781Z,31.54
2018-02-09T00:53:23.877Z,31.45
2018-02-09T00:54:23.773Z,31.45
2018-02-09T00:55:23.761Z,31.45
2018-02-09T00:56:23.751Z,31.54
2018-02-09T00:57:23.796Z,31.63
2018-02-09T00:58:23.735Z,31.54
2018-02-09T00:59:23.781Z,31.93
2018-02-09T01:00:23.722Z,31.45
2018-02-09T01:01:23.774Z,32.03
2018-02-09T01:02:23.711Z,32.12
2018-02-09T01:03:23.748Z,31.93
2018-02-09T01:04:23.695Z,31.93
2018-02-09T01:05:23.690Z,32.03
2018-02-09T01:06:23.679Z,32.21
2018-02-09T01:07:23.670Z,32.21
2018-02-09T01:08:23.663Z,32.12
2018-02-09T01:09:23.657Z,32.03
2018-02-09T01:10:23.645Z,32.03
2018-02-09T01:11:23.641Z,32.31
2018-02-09T01:12:23.635Z,32.21
2018-02-09T01:13:23.629Z,32.31
2018-02-09T01:14:23.619Z,32.31
2018-02-09T01:15:23.606Z,32.12
2018-02-09T01:16:23.603Z,32.21
2018-02-09T01:17:23.596Z,32.21
2018-02-09T01:18:23.586Z,32.12
2018-02-09T01:19:23.577Z,32.21
2018-02-09T01:20:23.571Z,32.21
2018-02-09T01:21:23.565Z,32.21
2018-02-09T01:22:23.557Z,32.12
2018-02-09T01:23:23.549Z,32.12
2018-02-09T01:24:23.540Z,32.12
2018-02-09T01:25:23.532Z,32.12
2018-02-09T01:26:23.525Z,32.21
2018-02-09T01:27:23.523Z,32.31
2018-02-09T01:28:23.515Z,32.21
2018-02-09T01:29:23.506Z,32.31
2018-02-09T01:30:23.501Z,32.41
2018-02-09T01:31:23.486Z,32.31
2018-02-09T01:32:23.540Z,32.41
2018-02-09T01:33:23.474Z,32.51
2018-02-09T01:34:23.464Z,32.41
2018-02-09T01:35:23.457Z,32.51
2018-02-09T01:36:23.599Z,32.51
2018-02-09T01:37:23.444Z,32.41
2018-02-09T01:38:23.534Z,32.51
2018-02-09T01:39:23.425Z,32.51
2018-02-09T01:40:23.519Z,32.60
2018-02-09T01:41:23.417Z,32.51
2018-02-09T01:42:23.405Z,32.51
2018-02-09T01:43:23.396Z,32.51
2018-02-09T01:44:23.393Z,32.41
2018-02-09T01:45:23.385Z,32.41
2018-02-09T01:46:23.376Z,32.41
2018-02-09T01:47:23.367Z,32.51
2018-02-09T01:48:23.358Z,32.51
2018-02-09T01:49:23.353Z,32.51
2018-02-09T01:50:23.344Z,32.41
2018-02-09T01:51:23.337Z,32.41
2018-02-09T01:52:23.326Z,32.31
2018-02-09T01:53:23.322Z,32.41
2018-02-09T01:54:23.312Z,32.41
2018-02-09T01:55:23.460Z,32.31
2018-02-09T01:56:23.297Z,32.60
2018-02-09T01:57:23.293Z,32.41
2018-02-09T01:58:23.283Z,32.41
2018-02-09T01:59:23.276Z,32.49
2018-02-09T02:00:23.316Z,32.60
2018-02-09T02:01:23.260Z,32.60
2018-02-09T02:02:23.250Z,32.60
2018-02-09T02:03:23.246Z,32.60
2018-02-09T02:04:23.237Z,32.70
2018-02-09T02:05:23.228Z,32.60
2018-02-09T02:06:23.221Z,32.51
2018-02-09T02:07:23.212Z,32.60
2018-02-09T02:08:23.205Z,32.51
2018-02-09T02:09:23.196Z,32.41
2018-02-09T02:10:23.440Z,32.60
2018-02-09T02:11:23.180Z,32.51
2018-02-09T02:12:23.176Z,32.51
2018-02-09T02:13:23.163Z,32.41
2018-02-09T02:14:23.163Z,32.51
2018-02-09T02:15:23.148Z,32.60
2018-02-09T02:16:23.141Z,32.70
2018-02-09T02:17:23.144Z,32.51
2018-02-09T02:18:23.126Z,32.79
2018-02-09T02:19:23.122Z,32.51
2018-02-09T02:20:23.111Z,32.51
2018-02-09T02:21:23.150Z,32.89
2018-02-09T02:22:23.096Z,32.79
2018-02-09T02:23:23.087Z,32.78
2018-02-09T02:24:23.081Z,32.78
2018-02-09T02:25:23.071Z,32.70
2018-02-09T02:26:23.064Z,32.70
2018-02-09T02:27:23.059Z,32.79
2018-02-09T02:28:23.049Z,32.70
2018-02-09T02:29:23.043Z,32.70
2018-02-09T02:30:23.033Z,32.78
2018-02-09T02:31:23.027Z,32.70
2018-02-09T02:32:23.017Z,32.60
2018-02-09T02:33:23.011Z,32.60
2018-02-09T02:34:23.005Z,32.89
2018-02-09T02:35:22.995Z,32.89
2018-02-09T02:36:22.991Z,32.78
2018-02-09T02:37:22.978Z,32.89
2018-02-09T02:38:22.973Z,32.89
2018-02-09T02:39:22.963Z,32.79
2018-02-09T02:40:22.956Z,32.79
2018-02-09T02:41:22.947Z,32.78
2018-02-09T02:42:22.946Z,32.79
2018-02-09T02:43:22.935Z,32.79
2018-02-09T02:44:22.924Z,32.87
2018-02-09T02:45:22.918Z,32.87
2018-02-09T02:46:22.917Z,32.87
2018-02-09T02:47:22.899Z,32.79
2018-02-09T02:48:22.898Z,32.89
2018-02-09T02:49:22.887Z,32.89
2018-02-09T02:50:22.884Z,32.78
2018-02-09T02:51:22.871Z,32.78
2018-02-09T02:52:22.869Z,32.78
2018-02-09T02:53:22.857Z,32.78
2018-02-09T02:54:22.847Z,32.79
2018-02-09T02:55:22.837Z,32.87
2018-02-09T02:56:22.831Z,32.78
2018-02-09T02:57:22.821Z,32.99
2018-02-09T02:58:22.825Z,32.89
2018-02-09T02:59:22.806Z,32.99
2018-02-09T03:00:22.801Z,32.99
2018-02-09T03:01:22.792Z,32.99
2018-02-09T03:02:22.785Z,33.07
2018-02-09T03:03:22.780Z,33.07
2018-02-09T03:04:22.770Z,32.97
2018-02-09T03:05:22.773Z,33.26
2018-02-09T03:06:22.760Z,33.09
2018-02-09T03:07:22.747Z,33.07
2018-02-09T03:08:22.737Z,33.09
2018-02-09T03:09:22.738Z,33.17
2018-02-09T03:10:22.721Z,33.17
2018-02-09T03:11:22.712Z,33.07
2018-02-09T03:12:22.705Z,33.07
2018-02-09T03:13:22.703Z,33.09
2018-02-09T03:14:22.689Z,32.97
2018-02-09T03:15:22.683Z,32.97
2018-02-09T03:16:22.676Z,33.07
2018-02-09T03:17:22.672Z,33.07
2018-02-09T03:18:22.660Z,32.87
2018-02-09T03:19:22.651Z,32.97
2018-02-09T03:20:22.648Z,32.97
2018-02-09T03:21:22.638Z,32.87
2018-02-09T03:22:22.626Z,32.87
2018-02-09T03:23:22.617Z,33.07
2018-02-09T03:24:22.615Z,32.97
2018-02-09T03:25:22.601Z,32.97
2018-02-09T03:26:22.594Z,32.97
2018-02-09T03:27:22.589Z,32.97
2018-02-09T03:28:22.581Z,33.07
2018-02-09T03:29:22.572Z,33.07
2018-02-09T03:30:22.565Z,33.07
2018-02-09T03:31:22.552Z,33.07
2018-02-09T03:32:22.546Z,32.97
2018-02-09T03:33:22.537Z,32.97
2018-02-09T03:34:22.536Z,33.07
2018-02-09T03:35:22.520Z,32.97
2018-02-09T03:36:22.512Z,32.97
2018-02-09T03:37:22.505Z,33.07
2018-02-09T03:38:22.502Z,32.97
2018-02-09T03:39:22.487Z,33.07
2018-02-09T03:40:22.483Z,32.97
2018-02-09T03:41:22.722Z,32.97
2018-02-09T03:42:22.464Z,33.07
2018-02-09T03:43:22.455Z,33.07
2018-02-09T03:44:22.447Z,32.97
2018-02-09T03:45:22.441Z,33.07
2018-02-09T03:46:22.442Z,33.07
2018-02-09T03:47:22.427Z,32.97
2018-02-09T03:48:22.416Z,33.07
2018-02-09T03:49:22.407Z,32.97
2018-02-09T03:50:22.397Z,32.97
2018-02-09T03:51:22.389Z,33.07
2018-02-09T03:52:22.387Z,32.87
2018-02-09T03:53:22.375Z,32.97
2018-02-09T03:54:22.367Z,32.97
2018-02-09T03:55:22.366Z,33.07
2018-02-09T03:56:22.355Z,33.07
2018-02-09T03:57:22.341Z,33.07
2018-02-09T03:58:22.332Z,33.07
2018-02-09T03:59:22.325Z,33.07
2018-02-09T04:00:22.316Z,32.97
2018-02-09T04:01:22.309Z,33.07
2018-02-09T04:02:22.299Z,32.97
2018-02-09T04:03:22.293Z,32.97
2018-02-09T04:04:22.285Z,33.07
2018-02-09T04:05:22.277Z,32.97
2018-02-09T04:06:22.519Z,33.07
2018-02-09T04:07:22.264Z,32.97
2018-02-09T04:08:22.254Z,33.07
2018-02-09T04:09:22.246Z,33.07
2018-02-09T04:10:22.236Z,32.97
2018-02-09T04:11:22.276Z,33.07
2018-02-09T04:12:22.221Z,33.07
2018-02-09T04:13:22.216Z,33.07
2018-02-09T04:14:22.206Z,33.07
2018-02-09T04:15:22.198Z,32.97
2018-02-09T04:16:22.189Z,33.09
2018-02-09T04:17:22.190Z,33.29
2018-02-09T04:18:22.173Z,33.47
2018-02-09T04:19:22.161Z,32.99
2018-02-09T04:20:22.157Z,33.09
2018-02-09T04:21:22.193Z,33.09
2018-02-09T04:22:22.135Z,33.09
2018-02-09T04:23:22.126Z,33.18
2018-02-09T04:24:22.117Z,33.28
2018-02-09T04:25:22.109Z,33.18
2018-02-09T04:26:22.103Z,33.37
2018-02-09T04:27:22.090Z,32.70
2018-02-09T04:28:22.082Z,32.70
2018-02-09T04:29:22.075Z,32.79
2018-02-09T04:30:22.064Z,33.18
2018-02-09T04:31:22.115Z,32.79
2018-02-09T04:32:22.048Z,32.79
2018-02-09T04:33:22.042Z,32.79
2018-02-09T04:34:22.038Z,32.70
2018-02-09T04:35:22.020Z,32.79
2018-02-09T04:36:22.017Z,32.79
2018-02-09T04:37:22.004Z,32.79
2018-02-09T04:38:21.994Z,32.89
2018-02-09T04:39:21.988Z,32.79
2018-02-09T04:40:21.978Z,32.79
2018-02-09T04:41:21.974Z,32.79
2018-02-09T04:42:21.971Z,32.89
2018-02-09T04:43:21.956Z,32.79
2018-02-09T04:44:22.009Z,32.79
2018-02-09T04:45:21.937Z,32.89
2018-02-09T04:46:21.934Z,32.89
2018-02-09T04:47:21.919Z,32.79
2018-02-09T04:48:21.964Z,32.79
2018-02-09T04:49:21.903Z,32.89
2018-02-09T04:50:21.902Z,32.79
2018-02-09T04:51:21.885Z,32.79
2018-02-09T04:52:22.026Z,32.89
2018-02-09T04:53:21.869Z,32.79
2018-02-09T04:54:21.911Z,32.79
2018-02-09T04:55:21.860Z,32.79
2018-02-09T04:56:21.841Z,32.70
2018-02-09T04:57:21.838Z,32.70
2018-02-09T04:58:22.088Z,32.79
2018-02-09T04:59:21.818Z,32.89
2018-02-09T05:00:21.950Z,32.70
2018-02-09T05:01:21.803Z,32.51
2018-02-09T05:02:22.090Z,32.41
2018-02-09T05:03:21.787Z,32.41
2018-02-09T05:04:21.777Z,32.51
2018-02-09T05:05:21.765Z,32.51
2018-02-09T05:06:21.756Z,32.60
2018-02-09T05:07:21.752Z,32.60
2018-02-09T05:08:21.745Z,32.60
2018-02-09T05:09:21.736Z,32.31
2018-02-09T05:10:21.730Z,32.41
2018-02-09T05:11:21.716Z,32.41
2018-02-09T05:12:21.716Z,32.41
2018-02-09T05:13:21.700Z,32.41
2018-02-09T05:14:21.696Z,32.41
2018-02-09T05:15:21.686Z,32.51
2018-02-09T05:16:21.679Z,32.41
2018-02-09T05:17:21.668Z,32.51
2018-02-09T05:18:21.656Z,32.70
2018-02-09T05:19:21.650Z,32.51
2018-02-09T05:20:21.637Z,32.41
2018-02-09T05:21:21.631Z,32.41
2018-02-09T05:22:21.623Z,32.41
2018-02-09T05:23:21.615Z,32.31
2018-02-09T05:24:21.605Z,32.31
2018-02-09T05:25:21.596Z,32.51
2018-02-09T05:26:21.591Z,32.51
2018-02-09T05:27:21.583Z,32.41
2018-02-09T05:28:21.576Z,32.60
2018-02-09T05:29:21.567Z,32.39
2018-02-09T05:30:21.558Z,32.39
2018-02-09T05:31:21.546Z,32.49
2018-02-09T05:32:21.536Z,32.39
2018-02-09T05:33:21.538Z,32.59
2018-02-09T05:34:21.519Z,32.49
2018-02-09T05:35:21.516Z,32.39
2018-02-09T05:36:21.504Z,32.49
2018-02-09T05:37:21.494Z,32.49
2018-02-09T05:38:21.486Z,32.59
2018-02-09T05:39:21.553Z,32.79
2018-02-09T05:40:21.472Z,32.78
2018-02-09T05:41:21.659Z,32.78
2018-02-09T05:42:21.454Z,32.59
2018-02-09T05:43:21.447Z,32.78
2018-02-09T05:44:21.439Z,32.68
2018-02-09T05:45:21.531Z,32.68
2018-02-09T05:46:21.426Z,32.87
2018-02-09T05:47:21.410Z,32.78
2018-02-09T05:48:21.403Z,32.78
2018-02-09T05:49:21.394Z,32.78
2018-02-09T05:50:21.385Z,32.87
2018-02-09T05:51:21.380Z,32.89
2018-02-09T05:52:21.617Z,32.78
2018-02-09T05:53:21.365Z,32.78
2018-02-09T05:54:21.353Z,32.68
2018-02-09T05:55:21.340Z,32.78
2018-02-09T05:56:21.339Z,32.78
2018-02-09T05:57:21.326Z,32.87
2018-02-09T05:58:21.319Z,32.68
2018-02-09T05:59:21.317Z,32.49
2018-02-09T06:00:21.302Z,33.36
2018-02-09T06:01:21.293Z,33.26
2018-02-09T06:02:21.284Z,32.59
2018-02-09T06:03:21.277Z,33.36
2018-02-09T06:04:21.265Z,33.17
2018-02-09T06:05:21.256Z,33.28
2018-02-09T06:06:21.249Z,33.18
2018-02-09T06:07:21.238Z,33.07
2018-02-09T06:08:21.249Z,33.07
2018-02-09T06:09:21.222Z,33.09
2018-02-09T06:10:21.215Z,33.07
2018-02-09T06:11:21.206Z,32.97
2018-02-09T06:12:21.196Z,32.97
2018-02-09T06:13:21.190Z,32.97
2018-02-09T06:14:21.184Z,33.07
2018-02-09T06:15:21.178Z,33.17
2018-02-09T06:16:21.163Z,32.87
2018-02-09T06:17:21.158Z,33.07
2018-02-09T06:18:21.152Z,32.87
2018-02-09T06:19:21.137Z,32.87
2018-02-09T06:20:21.127Z,32.97
2018-02-09T06:21:21.177Z,32.87
2018-02-09T06:22:21.173Z,32.97
2018-02-09T06:23:21.102Z,33.17
2018-02-09T06:24:21.100Z,33.26
2018-02-09T06:25:21.090Z,32.97
2018-02-09T06:26:21.084Z,33.26
2018-02-09T06:27:21.077Z,33.07
2018-02-09T06:28:21.059Z,33.36
2018-02-09T06:29:21.053Z,33.17
2018-02-09T06:30:21.043Z,33.07
2018-02-09T06:31:21.072Z,33.36
2018-02-09T06:32:21.039Z,33.26
2018-02-09T06:33:21.020Z,33.17
2018-02-09T06:34:21.021Z,33.26
2018-02-09T06:35:21.004Z,33.45
2018-02-09T06:36:20.992Z,33.45
2018-02-09T06:37:20.988Z,33.26
2018-02-09T06:38:20.976Z,33.17
2018-02-09T06:39:20.969Z,33.17
2018-02-09T06:40:20.958Z,33.26
2018-02-09T06:41:20.950Z,33.17
2018-02-09T06:42:20.943Z,33.26
2018-02-09T06:43:20.943Z,33.45
2018-02-09T06:44:20.927Z,33.26
2018-02-09T06:45:20.916Z,33.17
2018-02-09T06:46:20.910Z,33.36
2018-02-09T06:47:20.905Z,33.36
2018-02-09T06:48:20.895Z,33.36
2018-02-09T06:49:20.887Z,33.17
2018-02-09T06:50:20.873Z,33.55
2018-02-09T06:51:20.863Z,33.65
2018-02-09T06:52:20.865Z,33.45
2018-02-09T06:53:20.851Z,33.55
2018-02-09T06:54:20.842Z,33.26
2018-02-09T06:55:20.831Z,33.45
2018-02-09T06:56:20.827Z,33.65
2018-02-09T06:57:20.817Z,33.55
2018-02-09T06:58:20.807Z,33.45
2018-02-09T06:59:20.799Z,33.45
2018-02-09T07:00:20.792Z,33.45
2018-02-09T07:01:20.779Z,33.55
2018-02-09T07:02:20.780Z,33.55
2018-02-09T07:03:20.764Z,33.45
2018-02-09T07:04:20.754Z,33.45
2018-02-09T07:05:20.745Z,33.55
2018-02-09T07:06:20.737Z,33.45
2018-02-09T07:07:20.728Z,33.45
2018-02-09T07:08:20.719Z,33.55
2018-02-09T07:09:20.716Z,33.55
2018-02-09T07:10:20.702Z,33.55
2018-02-09T07:11:20.696Z,33.55
2018-02-09T07:12:20.686Z,33.55
2018-02-09T07:13:20.684Z,33.55
2018-02-09T07:14:20.670Z,33.55
2018-02-09T07:15:20.696Z,33.65
2018-02-09T07:16:20.654Z,33.55
2018-02-09T07:17:20.645Z,33.45
2018-02-09T07:18:20.638Z,33.55
2018-02-09T07:19:20.627Z,33.55
2018-02-09T07:20:20.617Z,33.45
2018-02-09T07:21:20.619Z,33.55
2018-02-09T07:22:20.603Z,33.55
2018-02-09T07:23:20.600Z,33.55
2018-02-09T07:24:20.587Z,33.65
2018-02-09T07:25:20.575Z,33.55
2018-02-09T07:26:20.566Z,33.65
2018-02-09T07:27:20.556Z,33.55
2018-02-09T07:28:20.550Z,33.65
2018-02-09T07:29:20.540Z,33.74
2018-02-09T07:30:20.534Z,33.55
2018-02-09T07:31:20.529Z,33.45
2018-02-09T07:32:20.515Z,33.65
2018-02-09T07:33:20.758Z,33.45
2018-02-09T07:34:20.499Z,33.65
2018-02-09T07:35:20.492Z,33.45
2018-02-09T07:36:20.487Z,33.45
2018-02-09T07:37:20.475Z,33.45
2018-02-09T07:38:20.466Z,33.55
2018-02-09T07:39:20.456Z,33.45
2018-02-09T07:40:20.448Z,33.55
2018-02-09T07:41:20.438Z,33.36
2018-02-09T07:42:20.430Z,33.36
2018-02-09T07:43:20.432Z,32.87
2018-02-09T07:44:20.409Z,33.07
2018-02-09T07:45:20.402Z,33.26
2018-02-09T07:46:20.396Z,32.68
2018-02-09T07:47:20.387Z,32.97
2018-02-09T07:48:20.375Z,32.59
2018-02-09T07:49:20.422Z,32.49
2018-02-09T07:50:20.367Z,32.20
2018-02-09T07:51:20.355Z,32.20
2018-02-09T07:52:20.345Z,31.52
2018-02-09T07:53:20.336Z,31.72
2018-02-09T07:54:20.331Z,32.20
2018-02-09T07:55:20.563Z,31.62
2018-02-09T07:56:20.557Z,31.52
2018-02-09T07:57:20.302Z,31.52
2018-02-09T07:58:20.308Z,31.52
2018-02-09T07:59:20.275Z,31.52
2018-02-09T08:00:20.271Z,31.52
2018-02-09T08:01:20.262Z,31.52
2018-02-09T08:02:20.251Z,31.43
2018-02-09T08:03:20.256Z,31.62
2018-02-09T08:04:20.237Z,31.81
2018-02-09T08:05:20.225Z,31.52
2018-02-09T08:06:20.216Z,31.24
2018-02-09T08:07:20.207Z,30.56
2018-02-09T08:08:20.200Z,30.56
2018-02-09T08:09:20.191Z,30.46
2018-02-09T08:10:20.184Z,30.76
2018-02-09T08:11:20.170Z,30.46
2018-02-09T08:12:20.165Z,30.37
2018-02-09T08:13:20.409Z,30.46
2018-02-09T08:14:20.172Z,30.37
2018-02-09T08:15:20.148Z,30.56
2018-02-09T08:16:20.128Z,30.46
2018-02-09T08:17:20.122Z,30.94
2018-02-09T08:18:20.266Z,30.85
2018-02-09T08:19:20.106Z,31.04
2018-02-09T08:20:20.200Z,31.33
2018-02-09T08:21:20.085Z,31.24
2018-02-09T08:22:20.110Z,31.24
2018-02-09T08:23:20.066Z,31.62
2018-02-09T08:24:20.138Z,31.43
2018-02-09T08:25:20.059Z,31.52
2018-02-09T08:26:20.090Z,31.43
2018-02-09T08:27:20.027Z,31.43
2018-02-09T08:28:20.025Z,31.43
2018-02-09T08:29:20.011Z,31.43
2018-02-09T08:30:20.015Z,31.52
2018-02-09T08:31:20.003Z,31.43
2018-02-09T08:32:19.985Z,31.43
2018-02-09T08:33:19.977Z,31.33
2018-02-09T08:34:19.973Z,31.81
2018-02-09T08:35:19.958Z,32.10
2018-02-09T08:36:19.952Z,31.81
2018-02-09T08:37:19.942Z,32.01
2018-02-09T08:38:19.936Z,31.81
2018-02-09T08:39:19.924Z,31.72
2018-02-09T08:40:19.919Z,31.43
2018-02-09T08:41:19.911Z,31.52
2018-02-09T08:42:19.902Z,31.52
2018-02-09T08:43:19.887Z,31.52
2018-02-09T08:44:19.887Z,31.33
2018-02-09T08:45:19.870Z,31.33
2018-02-09T08:46:19.864Z,31.72
2018-02-09T08:47:19.852Z,31.91
2018-02-09T08:48:19.845Z,31.91
2018-02-09T08:49:19.838Z,31.91
2018-02-09T08:50:19.831Z,32.01
2018-02-09T08:51:19.828Z,31.91
2018-02-09T08:52:19.815Z,31.91
2018-02-09T08:53:19.802Z,31.91
2018-02-09T08:54:19.792Z,32.01
2018-02-09T08:55:19.784Z,31.91
2018-02-09T08:56:19.785Z,31.91
2018-02-09T08:57:19.769Z,31.72
2018-02-09T08:58:19.762Z,31.81
2018-02-09T08:59:19.765Z,32.20
2018-02-09T09:00:19.747Z,32.10
2018-02-09T09:01:19.904Z,32.10
2018-02-09T09:02:19.731Z,31.81
2018-02-09T09:03:19.809Z,31.72
2018-02-09T09:04:19.705Z,31.54
2018-02-09T09:05:19.695Z,31.33
2018-02-09T09:06:19.697Z,32.21
2018-02-09T09:07:19.825Z,32.21
2018-02-09T09:08:19.681Z,32.12
2018-02-09T09:09:19.724Z,32.41
2018-02-09T09:10:19.660Z,32.21
2018-02-09T09:11:19.645Z,32.12
2018-02-09T09:12:19.636Z,32.70
2018-02-09T09:13:19.678Z,32.51
2018-02-09T09:14:19.623Z,32.51
2018-02-09T09:15:19.612Z,32.60
2018-02-09T09:16:19.597Z,32.41
2018-02-09T09:17:19.642Z,32.41
2018-02-09T09:18:19.584Z,32.51
2018-02-09T09:19:19.590Z,32.41
2018-02-09T09:20:19.617Z,32.41
2018-02-09T09:21:19.559Z,32.51
2018-02-09T09:22:19.546Z,32.51
2018-02-09T09:23:19.598Z,32.41
2018-02-09T09:24:19.530Z,32.41
2018-02-09T09:25:19.519Z,32.51
2018-02-09T09:26:19.512Z,32.51
2018-02-09T09:27:19.503Z,32.14
2018-02-09T09:28:19.500Z,32.23
2018-02-09T09:29:19.486Z,32.14
2018-02-09T09:30:19.489Z,31.75
2018-02-09T09:31:19.472Z,31.65
2018-02-09T09:32:19.464Z,31.94
2018-02-09T09:33:19.453Z,31.48
2018-02-09T09:34:19.494Z,31.48
2018-02-09T09:35:19.434Z,31.30
2018-02-09T09:36:19.424Z,31.01
2018-02-09T09:37:19.419Z,31.01
2018-02-09T09:38:19.412Z,30.91
2018-02-09T09:39:19.403Z,30.62
2018-02-09T09:40:19.396Z,31.01
2018-02-09T09:41:19.385Z,30.91
2018-02-09T09:42:19.376Z,30.99
2018-02-09T09:43:19.374Z,31.28
2018-02-09T09:44:19.368Z,31.28
2018-02-09T09:45:19.352Z,31.18
2018-02-09T09:46:19.344Z,31.28
2018-02-09T09:47:19.332Z,31.38
2018-02-09T09:48:19.626Z,31.28
2018-02-09T09:49:19.319Z,31.38
2018-02-09T09:50:19.317Z,31.38
2018-02-09T09:51:19.304Z,31.38
2018-02-09T09:52:19.300Z,31.18
2018-02-09T09:53:19.593Z,31.48
2018-02-09T09:54:19.286Z,31.28
2018-02-09T09:55:19.272Z,31.28
2018-02-09T09:56:19.313Z,31.28
2018-02-09T09:57:19.253Z,31.28
2018-02-09T09:58:19.497Z,31.57
2018-02-09T09:59:19.235Z,31.48
2018-02-09T10:00:19.288Z,31.48
2018-02-09T10:01:19.224Z,31.67
2018-02-09T10:02:19.216Z,31.67
2018-02-09T10:03:19.451Z,31.48
2018-02-09T10:04:19.196Z,31.48
2018-02-09T10:05:19.187Z,31.57
2018-02-09T10:06:19.177Z,31.57
2018-02-09T10:07:19.184Z,31.57
2018-02-09T10:08:19.425Z,31.57
2018-02-09T10:09:19.157Z,31.48
2018-02-09T10:10:19.148Z,31.48
2018-02-09T10:11:19.137Z,31.48
2018-02-09T10:12:19.129Z,31.57
2018-02-09T10:13:19.374Z,31.57
2018-02-09T10:14:19.125Z,31.57
2018-02-09T10:15:19.116Z,31.57
2018-02-09T10:16:19.096Z,31.57
2018-02-09T10:17:19.091Z,31.57
2018-02-09T10:18:19.330Z,31.48
2018-02-09T10:19:19.076Z,31.48
2018-02-09T10:20:19.067Z,31.48
2018-02-09T10:21:19.068Z,31.57
2018-02-09T10:22:19.051Z,31.57
2018-02-09T10:23:19.392Z,31.57
2018-02-09T10:24:19.034Z,31.57
2018-02-09T10:25:19.031Z,31.48
2018-02-09T10:26:19.019Z,31.48
2018-02-09T10:27:19.022Z,31.48
2018-02-09T10:28:19.254Z,31.48
2018-02-09T10:29:18.997Z,31.48
2018-02-09T10:30:18.983Z,31.57
2018-02-09T10:31:18.977Z,31.38
2018-02-09T10:32:18.972Z,31.38
2018-02-09T10:33:19.210Z,31.57
2018-02-09T10:34:18.956Z,31.57
2018-02-09T10:35:18.945Z,31.38
2018-02-09T10:36:18.935Z,31.38
2018-02-09T10:37:18.929Z,31.86
2018-02-09T10:38:19.174Z,31.38
2018-02-09T10:39:18.911Z,31.57
2018-02-09T10:40:18.915Z,31.48
2018-02-09T10:41:18.899Z,31.57
2018-02-09T10:42:18.891Z,31.38
2018-02-09T10:43:19.134Z,31.28
2018-02-09T10:44:18.879Z,31.18
2018-02-09T10:45:18.874Z,31.09
2018-02-09T10:46:18.857Z,30.90
2018-02-09T10:47:18.847Z,30.72
2018-02-09T10:48:19.096Z,30.61
2018-02-09T10:49:18.833Z,30.43
2018-02-09T10:50:18.824Z,30.41
2018-02-09T10:51:18.818Z,30.14
2018-02-09T10:52:18.809Z,29.85
2018-02-09T10:53:19.050Z,29.66
2018-02-09T10:54:18.795Z,29.94
2018-02-09T10:55:18.785Z,29.36
2018-02-09T10:56:18.777Z,29.36
2018-02-09T10:57:18.770Z,29.55
2018-02-09T10:58:19.012Z,29.27
2018-02-09T10:59:18.756Z,29.27
2018-02-09T11:00:18.760Z,29.08
2018-02-09T11:01:18.737Z,28.97
2018-02-09T11:02:18.731Z,28.88
2018-02-09T11:03:18.721Z,28.98
2018-02-09T11:04:18.714Z,28.40
2018-02-09T11:05:18.706Z,28.50
2018-02-09T11:06:18.698Z,28.19
2018-02-09T11:07:19.740Z,28.29
2018-02-09T11:08:18.683Z,28.39
2018-02-09T11:09:18.674Z,28.20
2018-02-09T11:10:18.667Z,28.40
2018-02-09T11:11:18.657Z,28.19
2018-02-09T11:12:18.714Z,28.09
2018-02-09T11:13:18.645Z,27.92
2018-02-09T11:14:18.639Z,27.91
2018-02-09T11:15:18.636Z,27.71
2018-02-09T11:16:18.618Z,27.81
2018-02-09T11:17:18.650Z,27.33
2018-02-09T11:18:18.606Z,27.33
2018-02-09T11:19:18.597Z,27.71
2018-02-09T11:20:18.591Z,27.71
2018-02-09T11:21:18.578Z,27.71
2018-02-09T11:22:18.573Z,27.71
2018-02-09T11:23:18.567Z,27.42
2018-02-09T11:24:18.806Z,27.71
2018-02-09T11:25:18.557Z,27.71
2018-02-09T11:26:18.544Z,27.81
2018-02-09T11:27:18.539Z,27.81
2018-02-09T11:28:18.529Z,27.71
2018-02-09T11:29:18.523Z,27.51
2018-02-09T11:30:18.757Z,27.42
2018-02-09T11:31:18.696Z,27.71
2018-02-09T11:32:18.494Z,27.91
2018-02-09T11:33:18.485Z,28.00
2018-02-09T11:34:18.477Z,27.91
2018-02-09T11:35:18.467Z,28.00
2018-02-09T11:36:18.461Z,28.19
2018-02-09T11:37:18.453Z,28.19
2018-02-09T11:38:18.444Z,28.19
2018-02-09T11:39:18.437Z,28.19
2018-02-09T11:40:18.428Z,28.29
2018-02-09T11:41:18.465Z,28.29
2018-02-09T11:42:18.570Z,28.48
2018-02-09T11:43:18.857Z,28.58
2018-02-09T11:44:18.395Z,28.67
2018-02-09T11:45:18.388Z,28.58
2018-02-09T11:46:18.626Z,28.67
2018-02-09T11:47:18.375Z,28.76
2018-02-09T11:48:18.365Z,28.77
2018-02-09T11:49:18.358Z,28.85
2018-02-09T11:50:18.352Z,28.85
2018-02-09T11:51:18.588Z,28.87
2018-02-09T11:52:18.335Z,29.24
2018-02-09T11:53:18.328Z,29.14
2018-02-09T11:54:18.326Z,29.34
2018-02-09T11:55:18.335Z,29.35
2018-02-09T11:56:18.550Z,29.05
2018-02-09T11:57:18.296Z,29.43
2018-02-09T11:58:18.287Z,29.63
2018-02-09T11:59:18.272Z,29.34
2018-02-09T12:00:18.265Z,29.34
2018-02-09T12:01:18.508Z,29.43
2018-02-09T12:02:18.251Z,29.43
2018-02-09T12:03:18.239Z,29.43
2018-02-09T12:04:18.242Z,29.82
2018-02-09T12:05:18.223Z,29.91
2018-02-09T12:06:18.476Z,29.82
2018-02-09T12:07:18.208Z,29.53
2018-02-09T12:08:18.201Z,29.82
2018-02-09T12:09:18.201Z,30.30
2018-02-09T12:10:18.193Z,29.82
2018-02-09T12:11:18.425Z,30.11
2018-02-09T12:12:18.165Z,30.11
2018-02-09T12:13:18.160Z,30.21
2018-02-09T12:14:18.158Z,30.21
2018-02-09T12:15:18.152Z,30.49
2018-02-09T12:16:19.890Z,30.49
2018-02-09T12:17:18.130Z,30.30
2018-02-09T12:18:18.118Z,30.59
2018-02-09T12:19:18.193Z,30.59
2018-02-09T12:20:18.106Z,30.59
2018-02-09T12:21:18.173Z,30.88
2018-02-09T12:22:18.083Z,30.79
2018-02-09T12:23:18.081Z,30.98
2018-02-09T12:24:18.070Z,30.69
2018-02-09T12:25:18.062Z,30.88
2018-02-09T12:26:18.055Z,30.98
2018-02-09T12:27:18.354Z,30.88
2018-02-09T12:28:18.038Z,30.98
2018-02-09T12:29:18.139Z,31.27
2018-02-09T12:30:18.023Z,31.27
2018-02-09T12:31:18.051Z,31.27
2018-02-09T12:32:18.253Z,31.37
2018-02-09T12:33:18.100Z,31.27
2018-02-09T12:34:17.989Z,31.37
2018-02-09T12:35:17.981Z,31.27
2018-02-09T12:36:17.974Z,31.65
2018-02-09T12:37:18.262Z,31.46
2018-02-09T12:38:18.050Z,31.46
2018-02-09T12:39:17.947Z,31.56
2018-02-09T12:40:18.052Z,31.56
2018-02-09T12:41:18.057Z,31.46
2018-02-09T12:42:18.314Z,31.56
2018-02-09T12:43:17.937Z,31.56
2018-02-09T12:44:17.908Z,31.46
2018-02-09T12:45:17.899Z,31.37
2018-02-09T12:46:17.891Z,31.56
2018-02-09T12:47:18.128Z,31.46
2018-02-09T12:48:17.877Z,31.46
2018-02-09T12:49:17.873Z,31.37
2018-02-09T12:50:17.861Z,31.37
2018-02-09T12:51:17.849Z,31.85
2018-02-09T12:52:18.241Z,31.85